createdAt,value
2019-01-21T00:01:01.675Z,28.73
2019-01-21T00:06:04.147Z,29.47
2019-01-21T00:11:06.622Z,27.70
2019-01-21T00:16:09.082Z,28.00
2019-01-21T00:21:11.553Z,28.70
2019-01-21T00:26:14.009Z,29.47
2019-01-21T00:31:16.465Z,29.27
2019-01-21T00:36:19.045Z,28.00
2019-01-21T00:41:21.413Z,28.93
2019-01-21T00:46:23.872Z,27.23
2019-01-21T00:51:26.337Z,26.57
2019-01-21T00:56:28.798Z,31.00
2019-01-21T01:01:31.264Z,28.37
2019-01-21T01:06:33.753Z,29.00
2019-01-21T01:11:36.226Z,30.40
2019-01-21T01:16:38.684Z,27.00
2019-01-21T01:21:41.152Z,30.60
2019-01-21T01:26:43.733Z,31.20
2019-01-21T01:31:46.205Z,30.53
2019-01-21T01:36:48.665Z,31.80
2019-01-21T01:41:51.139Z,31.43
2019-01-21T01:46:53.609Z,32.10
2019-01-21T01:51:56.075Z,32.73
2019-01-21T01:56:58.538Z,31.60
2019-01-21T02:02:00.992Z,30.83
2019-01-21T02:07:03.443Z,30.83
2019-01-21T02:12:05.904Z,31.47
2019-01-21T02:17:08.361Z,31.47
2019-01-21T02:22:10.818Z,30.17
2019-01-21T02:27:13.286Z,29.43
2019-01-21T02:32:27.970Z,30.80
2019-01-21T02:37:36.149Z,29.13
2019-01-21T02:42:59.798Z,29.23
2019-01-21T02:48:23.553Z,27.87
2019-01-21T02:53:38.097Z,28.07
2019-01-21T02:58:49.558Z,27.90
2019-01-21T03:03:54.962Z,28.90
2019-01-21T03:09:09.201Z,27.53
2019-01-21T03:14:11.664Z,27.37
2019-01-21T03:19:47.109Z,25.83
2019-01-21T03:25:00.765Z,27.83
2019-01-21T03:30:15.117Z,24.70
2019-01-21T03:35:54.478Z,24.90
2019-01-21T03:41:08.921Z,26.07
2019-01-21T03:46:35.489Z,25.23
2019-01-21T03:52:14.809Z,25.83
2019-01-21T03:57:17.267Z,26.27
2019-01-21T04:02:34.489Z,26.67
2019-01-21T04:07:49.046Z,27.20
2019-01-21T04:12:54.155Z,27.77
2019-01-21T04:17:56.621Z,27.10
2019-01-21T04:23:01.715Z,28.83
2019-01-21T04:28:07.269Z,29.73
2019-01-21T04:33:27.821Z,29.47
2019-01-21T04:38:45.295Z,28.30
2019-01-21T04:43:53.652Z,26.73
2019-01-21T04:49:13.844Z,27.30
2019-01-21T04:54:18.970Z,26.37
2019-01-21T04:59:21.432Z,25.83
2019-01-21T05:04:23.905Z,27.17
2019-01-21T05:09:41.184Z,27.97
2019-01-21T05:14:52.337Z,27.60
2019-01-21T05:20:03.513Z,26.57
2019-01-21T05:25:27.454Z,27.07
2019-01-21T05:30:48.258Z,28.47
2019-01-21T05:36:02.638Z,28.13
2019-01-21T05:41:13.799Z,28.27
2019-01-21T05:46:25.014Z,27.13
2019-01-21T05:51:30.161Z,28.87
2019-01-21T05:56:41.489Z,36.53
2019-01-21T06:01:59.164Z,27.93
2019-01-21T06:07:07.380Z,29.20
2019-01-21T06:12:28.034Z,32.00
2019-01-21T06:17:36.184Z,31.13
2019-01-21T06:22:47.768Z,30.27
2019-01-21T06:28:05.599Z,29.40
2019-01-21T06:33:26.727Z,29.63
2019-01-21T06:38:50.741Z,30.17
2019-01-21T06:44:17.435Z,28.43
2019-01-21T06:49:34.953Z,26.63
2019-01-21T06:54:40.335Z,27.10
2019-01-21T07:00:13.599Z,28.60
2019-01-21T07:05:37.349Z,28.87
2019-01-21T07:10:48.907Z,28.10
2019-01-21T07:15:54.296Z,28.60
2019-01-21T07:21:18.080Z,30.00
2019-01-21T07:26:26.308Z,30.07
2019-01-21T07:31:40.601Z,29.83
2019-01-21T07:36:58.076Z,29.10
2019-01-21T07:42:21.856Z,31.33
2019-01-21T07:47:33.196Z,31.77
2019-01-21T07:52:38.359Z,35.00
2019-01-21T07:57:49.799Z,34.27
2019-01-21T08:02:58.467Z,36.80
2019-01-21T08:08:03.609Z,33.57
2019-01-21T08:13:08.738Z,32.07
2019-01-21T08:18:20.407Z,32.80
2019-01-21T08:23:30.333Z,31.10
2019-01-21T08:28:39.880Z,32.03
2019-01-21T08:34:00.500Z,32.13
2019-01-21T08:39:08.978Z,32.33
2019-01-21T08:44:11.580Z,30.67
2019-01-21T08:49:14.038Z,31.50
2019-01-21T08:54:16.535Z,30.97
2019-01-21T08:59:18.989Z,30.27
2019-01-21T09:04:27.556Z,32.10
2019-01-21T09:09:35.823Z,30.17
2019-01-21T09:14:38.283Z,30.27
2019-01-21T09:20:02.296Z,29.10
2019-01-21T09:25:07.556Z,32.63
2019-01-21T09:30:15.753Z,28.77
2019-01-21T09:35:43.084Z,31.27
2019-01-21T09:40:45.541Z,30.17
2019-01-21T09:45:50.945Z,30.07
2019-01-21T09:50:53.361Z,31.43
2019-01-21T09:55:55.849Z,30.53
2019-01-21T10:00:58.324Z,32.10
2019-01-21T10:06:00.786Z,31.00
2019-01-21T10:11:22.018Z,32.57
2019-01-21T10:16:30.331Z,32.30
2019-01-21T10:21:53.975Z,30.73
2019-01-21T10:27:14.917Z,30.33
2019-01-21T10:32:26.691Z,30.73
2019-01-21T10:37:47.145Z,29.67
2019-01-21T10:42:58.509Z,29.23
2019-01-21T10:48:31.743Z,28.97
2019-01-21T10:53:43.051Z,30.00
2019-01-21T10:58:57.654Z,27.80
2019-01-21T11:04:18.697Z,29.70
2019-01-21T11:09:42.504Z,27.87
2019-01-21T11:14:47.898Z,26.97
2019-01-21T11:20:08.496Z,25.40
2019-01-21T11:25:32.667Z,25.60
2019-01-21T11:30:47.486Z,24.33
2019-01-21T11:36:20.391Z,25.63
2019-01-21T11:41:28.627Z,24.80
2019-01-21T11:46:43.073Z,25.03
2019-01-21T11:51:54.451Z,25.33
2019-01-21T11:56:56.983Z,24.80
2019-01-21T12:02:26.631Z,25.63
2019-01-21T12:07:53.596Z,26.67
2019-01-21T12:13:14.570Z,24.90
2019-01-21T12:18:29.154Z,25.63
2019-01-21T12:23:40.625Z,27.27
2019-01-21T12:28:55.003Z,27.30
2019-01-21T12:34:00.675Z,28.47
2019-01-21T12:39:09.062Z,27.33
2019-01-21T12:44:38.421Z,27.50
2019-01-21T12:50:11.396Z,26.23
2019-01-21T12:55:16.784Z,26.67
2019-01-21T13:00:34.067Z,27.10
2019-01-21T13:05:36.522Z,28.20
2019-01-21T13:10:42.075Z,26.73
2019-01-21T13:15:59.328Z,26.70
2019-01-21T13:21:04.521Z,27.37
2019-01-21T13:26:24.869Z,25.03
2019-01-21T13:31:57.569Z,27.37
2019-01-21T13:37:08.776Z,26.03
2019-01-21T13:42:11.238Z,26.97
2019-01-21T13:47:40.820Z,27.30
2019-01-21T13:53:01.710Z,26.33
2019-01-21T13:58:22.690Z,27.20
2019-01-21T14:03:30.903Z,28.27
2019-01-21T14:08:42.524Z,26.20
2019-01-21T14:13:53.779Z,26.20
2019-01-21T14:18:56.325Z,26.67
2019-01-21T14:24:29.545Z,27.20
2019-01-21T14:29:46.922Z,27.97
2019-01-21T14:34:55.492Z,28.33
2019-01-21T14:40:00.799Z,27.27
2019-01-21T14:45:24.292Z,27.43
2019-01-21T14:50:32.526Z,27.23
2019-01-21T14:55:34.995Z,28.07
2019-01-21T15:00:52.326Z,27.80
2019-01-21T15:06:03.567Z,27.23
2019-01-21T15:11:27.574Z,28.33
2019-01-21T15:16:57.453Z,28.50
2019-01-21T15:22:08.631Z,27.80
2019-01-21T15:27:19.860Z,27.80
2019-01-21T15:32:28.337Z,28.70
2019-01-21T15:37:45.726Z,29.40
2019-01-21T15:43:12.381Z,27.53
2019-01-21T15:48:35.832Z,30.43
2019-01-21T15:53:56.784Z,31.83
2019-01-21T15:59:08.052Z,36.10
2019-01-21T16:04:10.528Z,44.60
2019-01-21T16:09:27.821Z,37.63
2019-01-21T16:14:30.286Z,39.33
2019-01-21T16:19:32.746Z,40.63
2019-01-21T16:24:44.393Z,36.10
2019-01-21T16:29:49.768Z,30.73
2019-01-21T16:35:10.214Z,31.20
2019-01-21T16:40:24.622Z,28.13
2019-01-21T16:45:27.117Z,31.47
2019-01-21T16:50:29.582Z,30.27
2019-01-21T16:55:32.050Z,30.07
2019-01-21T17:00:34.516Z,29.53
2019-01-21T17:05:36.968Z,29.17
2019-01-21T17:10:39.556Z,29.40
2019-01-21T17:15:41.900Z,30.27
2019-01-21T17:20:44.379Z,28.80
2019-01-21T17:25:46.834Z,28.20
2019-01-21T17:30:49.304Z,29.10
2019-01-21T17:35:51.764Z,29.67
2019-01-21T17:40:54.292Z,30.87
2019-01-21T17:45:56.733Z,28.97
2019-01-21T17:50:59.220Z,28.47
2019-01-21T17:56:01.707Z,31.30
2019-01-21T18:01:04.160Z,32.83
2019-01-21T18:06:06.664Z,34.27
2019-01-21T18:11:09.156Z,35.63
2019-01-21T18:16:11.643Z,35.13
2019-01-21T18:21:14.145Z,33.23
2019-01-21T18:26:16.626Z,30.97
2019-01-21T18:31:19.116Z,32.57
2019-01-21T18:36:21.590Z,32.30
2019-01-21T18:41:24.122Z,31.67
2019-01-21T18:46:26.675Z,35.80
2019-01-21T18:51:29.099Z,35.17
2019-01-21T18:56:31.589Z,32.53
2019-01-21T19:01:34.064Z,30.77
2019-01-21T19:06:36.518Z,30.63
2019-01-21T19:11:38.997Z,30.23
2019-01-21T19:16:41.520Z,31.60
2019-01-21T19:21:43.956Z,29.60
2019-01-21T19:26:46.441Z,32.10
2019-01-21T19:31:48.915Z,32.50
2019-01-21T19:36:51.391Z,31.27
2019-01-21T19:41:53.881Z,30.77
2019-01-21T19:46:56.357Z,31.83
2019-01-21T19:52:00.397Z,30.77
2019-01-21T19:57:01.364Z,31.20
2019-01-21T20:02:03.840Z,30.20
2019-01-21T20:07:06.325Z,30.73
2019-01-21T20:12:08.811Z,31.53
2019-01-21T20:17:11.281Z,34.20
2019-01-21T20:22:13.758Z,34.57
2019-01-21T20:27:16.268Z,35.37
2019-01-21T20:32:18.738Z,35.00
2019-01-21T20:37:21.205Z,33.97
2019-01-21T20:42:23.697Z,34.97
2019-01-21T20:47:26.140Z,36.83
2019-01-21T20:52:28.613Z,38.83
2019-01-21T20:57:31.089Z,35.83
2019-01-21T21:02:33.578Z,35.97
2019-01-21T21:07:36.175Z,42.97
2019-01-21T21:12:39.726Z,40.40
2019-01-21T21:17:42.210Z,41.87
2019-01-21T21:22:44.677Z,41.80
2019-01-21T21:27:47.283Z,44.37
2019-01-21T21:32:49.751Z,49.07
2019-01-21T21:37:52.215Z,50.17
2019-01-21T21:42:54.707Z,49.23
2019-01-21T21:48:00.920Z,48.10
2019-01-21T21:52:59.634Z,49.47
2019-01-21T21:58:02.103Z,45.70
2019-01-21T22:03:04.569Z,44.80
2019-01-21T22:08:07.055Z,44.17
2019-01-21T22:13:09.539Z,46.30
2019-01-21T22:18:12.024Z,44.77
2019-01-21T22:23:14.485Z,41.60
2019-01-21T22:28:16.965Z,42.20
2019-01-21T22:33:19.491Z,41.97
2019-01-21T22:38:21.963Z,43.70
2019-01-21T22:43:24.477Z,42.03
2019-01-21T22:48:26.907Z,40.63
2019-01-21T22:53:29.372Z,42.97
2019-01-21T22:58:31.848Z,42.57
2019-01-21T23:03:34.317Z,43.37
2019-01-21T23:08:36.775Z,42.27
2019-01-21T23:13:39.237Z,42.43
2019-01-21T23:18:41.701Z,42.27
2019-01-21T23:23:44.164Z,41.00
2019-01-21T23:28:46.624Z,44.10
2019-01-21T23:33:49.093Z,45.57
2019-01-21T23:38:51.555Z,45.57
2019-01-21T23:43:54.009Z,44.87
2019-01-21T23:48:56.476Z,41.50
2019-01-21T23:53:59.013Z,40.30
2019-01-21T23:59:01.495Z,41.77
